createdAt,value
2018-03-26T00:00:21.338Z,69791.12
2018-03-26T00:02:49.686Z,69793.45
2018-03-26T00:05:18.030Z,69783.96
2018-03-26T00:07:46.381Z,69790.64
2018-03-26T00:10:14.710Z,69790.03
2018-03-26T00:12:43.064Z,69790.81
2018-03-26T00:15:11.394Z,69799.70
2018-03-26T00:17:39.746Z,69797.67
2018-03-26T00:20:08.077Z,69792.36
2018-03-26T00:22:36.429Z,69792.26
2018-03-26T00:25:04.764Z,69789.02
2018-03-26T00:27:33.127Z,69787.13
2018-03-26T00:30:01.454Z,69784.19
2018-03-26T00:32:29.807Z,69779.56
2018-03-26T00:34:58.147Z,69774.02
2018-03-26T00:37:26.502Z,69763.24
2018-03-26T00:39:54.830Z,69752.29
2018-03-26T00:42:23.173Z,69748.19
2018-03-26T00:44:51.498Z,69753.00
2018-03-26T00:47:19.846Z,69744.85
2018-03-26T00:49:48.171Z,69737.82
2018-03-26T00:52:16.518Z,69736.05
2018-03-26T00:54:44.830Z,69739.77
2018-03-26T00:57:13.186Z,69744.38
2018-03-26T00:59:41.510Z,69740.47
2018-03-26T01:02:09.861Z,69739.46
2018-03-26T01:04:38.187Z,69751.83
2018-03-26T01:07:06.531Z,69755.22
2018-03-26T01:09:34.850Z,69754.34
2018-03-26T01:14:30.574Z,69741.13
2018-03-26T01:16:58.913Z,69742.55
2018-03-26T01:19:27.243Z,69744.70
2018-03-26T01:21:55.590Z,69743.56
2018-03-26T01:24:23.918Z,69742.55
2018-03-26T01:26:52.267Z,69752.72
2018-03-26T01:29:20.598Z,69741.44
2018-03-26T01:31:48.922Z,69745.08
2018-03-26T01:34:17.260Z,69750.92
2018-03-26T01:36:45.587Z,69754.72
2018-03-26T01:39:13.926Z,69756.73
2018-03-26T01:41:42.242Z,69749.08
2018-03-26T01:44:10.591Z,69755.02
2018-03-26T01:46:38.913Z,69754.13
2018-03-26T01:49:07.258Z,69758.84
2018-03-26T01:51:35.586Z,69757.92
2018-03-26T01:54:03.932Z,69755.32
2018-03-26T01:56:32.463Z,69756.94
2018-03-26T01:59:00.622Z,69755.32
2018-03-26T02:01:28.927Z,69746.47
2018-03-26T02:03:57.271Z,69745.69
2018-03-26T02:06:25.594Z,69742.67
2018-03-26T02:08:53.933Z,69744.98
2018-03-26T02:11:22.253Z,69747.45
2018-03-26T02:13:50.609Z,69760.17
2018-03-26T02:16:18.931Z,69760.25
2018-03-26T02:18:47.270Z,69753.70
2018-03-26T02:21:15.607Z,69754.53
2018-03-26T02:23:43.946Z,69749.30
2018-03-26T02:26:12.274Z,69750.21
2018-03-26T02:28:40.623Z,69754.13
2018-03-26T02:31:09.271Z,69751.61
2018-03-26T02:33:37.598Z,69749.20
2018-03-26T02:36:05.928Z,69743.56
2018-03-26T02:38:34.271Z,69737.44
2018-03-26T02:41:02.588Z,69734.10
2018-03-26T02:43:30.931Z,69740.86
2018-03-26T02:45:59.255Z,69740.14
2018-03-26T02:48:27.599Z,69738.34
2018-03-26T02:50:55.919Z,69744.50
2018-03-26T02:53:24.258Z,69734.53
2018-03-26T02:55:52.586Z,69727.59
2018-03-26T02:58:20.922Z,69714.53
2018-03-26T03:00:49.247Z,69715.13
2018-03-26T03:03:20.513Z,69718.97
2018-03-26T03:05:48.831Z,69719.96
2018-03-26T03:08:17.176Z,69709.39
2018-03-26T03:10:45.501Z,69714.85
2018-03-26T03:13:13.842Z,69713.82
2018-03-26T03:15:42.164Z,69720.24
2018-03-26T03:18:10.513Z,69718.24
2018-03-26T03:20:38.841Z,69717.34
2018-03-26T03:23:07.178Z,69726.48
2018-03-26T03:25:35.494Z,69723.00
2018-03-26T03:28:03.843Z,69722.69
2018-03-26T03:30:32.167Z,69726.20
2018-03-26T03:33:00.528Z,69734.25
2018-03-26T03:35:28.849Z,69736.17
2018-03-26T03:37:57.173Z,69722.52
2018-03-26T03:40:25.514Z,69730.91
2018-03-26T03:42:53.844Z,69729.59
2018-03-26T03:45:22.202Z,69735.44
2018-03-26T03:47:50.522Z,69739.05
2018-03-26T03:50:18.862Z,69738.15
2018-03-26T03:52:47.190Z,69735.92
2018-03-26T03:55:15.526Z,69737.95
2018-03-26T03:57:43.846Z,69713.94
2018-03-26T04:00:12.209Z,69699.77
2018-03-26T04:02:40.513Z,69704.59
2018-03-26T04:05:08.861Z,69708.28
2018-03-26T04:07:37.183Z,69700.69
2018-03-26T04:10:05.522Z,69700.77
2018-03-26T04:12:33.834Z,69699.08
2018-03-26T04:15:02.183Z,69701.60
2018-03-26T04:17:30.506Z,69704.69
2018-03-26T04:19:58.854Z,69711.54
2018-03-26T04:22:27.173Z,69712.33
2018-03-26T04:24:55.513Z,69708.30
2018-03-26T04:27:23.835Z,69700.77
2018-03-26T04:29:52.178Z,69708.71
2018-03-26T04:32:20.498Z,69702.09
2018-03-26T04:34:48.842Z,69697.23
2018-03-26T04:37:17.249Z,69699.98
2018-03-26T04:39:45.582Z,69695.54
2018-03-26T04:42:13.908Z,69695.86
2018-03-26T04:44:42.257Z,69690.33
2018-03-26T04:47:10.586Z,69686.81
2018-03-26T04:49:38.930Z,69681.38
2018-03-26T04:52:07.258Z,69684.41
2018-03-26T04:54:35.606Z,69682.80
2018-03-26T04:57:03.938Z,69683.20
2018-03-26T04:59:32.873Z,69688.03
2018-03-26T05:02:01.201Z,69679.16
2018-03-26T05:04:29.550Z,69682.59
2018-03-26T05:06:58.826Z,69683.63
2018-03-26T05:09:27.182Z,69673.87
2018-03-26T05:11:55.505Z,69658.98
2018-03-26T05:14:23.927Z,69652.38
2018-03-26T05:16:52.190Z,69650.36
2018-03-26T05:19:20.543Z,69652.36
2018-03-26T05:21:48.877Z,69660.80
2018-03-26T05:24:17.231Z,69661.91
2018-03-26T05:26:45.554Z,69665.02
2018-03-26T05:29:13.918Z,69665.33
2018-03-26T05:31:42.247Z,69660.48
2018-03-26T05:34:10.599Z,69663.53
2018-03-26T05:36:38.931Z,69668.84
2018-03-26T05:39:07.253Z,69667.83
2018-03-26T05:41:35.602Z,69676.09
2018-03-26T05:44:03.932Z,69674.25
2018-03-26T05:46:32.292Z,69676.78
2018-03-26T05:49:00.619Z,69681.50
2018-03-26T05:51:28.967Z,69681.00
2018-03-26T05:53:57.293Z,69680.39
2018-03-26T05:56:25.749Z,69671.55
2018-03-26T05:58:54.058Z,69673.47
2018-03-26T06:01:26.888Z,69662.09
2018-03-26T06:03:55.746Z,69662.09
2018-03-26T06:06:24.090Z,69666.41
2018-03-26T06:08:52.417Z,69668.44
2018-03-26T06:11:20.774Z,69653.98
2018-03-26T06:13:49.123Z,69659.72
2018-03-26T06:16:17.450Z,69658.00
2018-03-26T06:18:46.138Z,69662.30
2018-03-26T06:21:14.486Z,69662.02
2018-03-26T06:23:42.814Z,69663.23
2018-03-26T06:26:12.057Z,69656.05
2018-03-26T06:28:40.390Z,69661.61
2018-03-26T06:31:08.737Z,69660.50
2018-03-26T06:33:37.074Z,69662.80
2018-03-26T06:39:33.925Z,69671.92
2018-03-26T06:42:02.338Z,69669.93
2018-03-26T06:44:30.661Z,69675.16
2018-03-26T06:46:59.015Z,69678.17
2018-03-26T06:49:27.346Z,69678.67
2018-03-26T06:51:55.688Z,69693.16
2018-03-26T06:54:24.022Z,69693.05
2018-03-26T06:56:52.374Z,69699.86
2018-03-26T06:59:20.697Z,69684.39
2018-03-26T07:01:49.049Z,69670.23
2018-03-26T07:04:17.375Z,69658.17
2018-03-26T07:06:46.400Z,69633.59
2018-03-26T07:09:14.690Z,69616.75
2018-03-26T07:11:43.043Z,69599.67
2018-03-26T07:14:11.376Z,69593.66
2018-03-26T07:16:39.738Z,69609.13
2018-03-26T07:19:08.061Z,69612.31
2018-03-26T07:21:36.432Z,69628.96
2018-03-26T07:24:04.750Z,69636.11
2018-03-26T07:26:34.102Z,69652.28
2018-03-26T07:29:02.435Z,69644.34
2018-03-26T07:31:30.790Z,69650.27
2018-03-26T07:33:59.190Z,69647.45
2018-03-26T07:36:27.534Z,69632.92
2018-03-26T07:38:55.910Z,69613.92
2018-03-26T07:41:24.622Z,69611.04
2018-03-26T07:43:53.010Z,69614.23
2018-03-26T07:46:22.626Z,69613.50
2018-03-26T07:48:50.979Z,69607.13
2018-03-26T07:51:19.401Z,69609.50
2018-03-26T07:53:47.754Z,69602.30
2018-03-26T07:56:16.114Z,69601.27
2018-03-26T07:58:44.443Z,69583.81
2018-03-26T08:01:12.789Z,69579.80
2018-03-26T08:03:41.122Z,69574.88
2018-03-26T08:06:09.563Z,69552.78
2018-03-26T08:08:37.901Z,69535.94
2018-03-26T08:11:06.376Z,69523.69
2018-03-26T08:13:34.694Z,69526.11
2018-03-26T08:16:03.048Z,69521.80
2018-03-26T08:18:31.383Z,69538.64
2018-03-26T08:20:59.730Z,69560.33
2018-03-26T08:23:28.070Z,69566.58
2018-03-26T08:25:56.898Z,69550.98
2018-03-26T08:28:25.227Z,69546.16
2018-03-26T08:30:53.578Z,69555.80
2018-03-26T08:33:21.917Z,69559.72
2018-03-26T08:35:50.290Z,69561.72
2018-03-26T08:38:18.626Z,69591.22
2018-03-26T08:40:46.949Z,69638.73
2018-03-26T08:43:15.290Z,69625.25
2018-03-26T08:45:43.611Z,69612.20
2018-03-26T08:48:11.966Z,69588.52
2018-03-26T08:50:40.287Z,69581.39
2018-03-26T08:53:08.627Z,69587.73
2018-03-26T08:55:37.174Z,69598.97
2018-03-26T08:58:05.506Z,69608.30
2018-03-26T09:00:33.833Z,69608.81
2018-03-26T09:03:02.178Z,69566.56
2018-03-26T09:05:30.502Z,69562.64
2018-03-26T09:07:58.838Z,69561.73
2018-03-26T09:10:27.168Z,69568.17
2018-03-26T09:12:55.506Z,69586.16
2018-03-26T09:15:23.835Z,69586.73
2018-03-26T09:17:52.180Z,69570.25
2018-03-26T09:20:20.509Z,69554.61
2018-03-26T09:22:48.849Z,69566.28
2018-03-26T09:25:17.174Z,69550.08
2018-03-26T09:27:45.543Z,69570.95
2018-03-26T09:30:13.866Z,69590.23
2018-03-26T09:32:42.206Z,69608.59
2018-03-26T09:35:10.535Z,69603.97
2018-03-26T09:37:38.884Z,69607.00
2018-03-26T09:40:07.205Z,69607.50
2018-03-26T09:42:35.550Z,69594.85
2018-03-26T09:45:03.863Z,69606.30
2018-03-26T09:47:32.198Z,69618.83
2018-03-26T09:50:00.522Z,69631.27
2018-03-26T09:52:28.867Z,69653.98
2018-03-26T09:54:57.194Z,69666.64
2018-03-26T09:57:25.542Z,69676.47
2018-03-26T09:59:53.865Z,69676.88
2018-03-26T10:02:22.210Z,69667.45
2018-03-26T10:04:50.539Z,69658.17
2018-03-26T10:07:18.886Z,69660.02
2018-03-26T10:09:47.214Z,69650.92
2018-03-26T10:12:15.554Z,69659.81
2018-03-26T10:14:43.874Z,69643.11
2018-03-26T10:17:12.213Z,69653.88
2018-03-26T10:19:40.559Z,69634.41
2018-03-26T10:22:08.878Z,69636.64
2018-03-26T10:24:37.196Z,69635.20
2018-03-26T10:27:05.534Z,69638.33
2018-03-26T10:29:33.846Z,69643.95
2018-03-26T10:32:02.190Z,69643.39
2018-03-26T10:34:30.506Z,69702.28
2018-03-26T10:36:58.846Z,69683.91
2018-03-26T10:39:27.281Z,69685.40
2018-03-26T10:41:55.610Z,69686.91
2018-03-26T10:44:24.115Z,69658.17
2018-03-26T10:46:52.451Z,69654.78
2018-03-26T10:49:20.798Z,69643.74
2018-03-26T10:51:49.138Z,69635.50
2018-03-26T10:54:17.486Z,69633.33
2018-03-26T10:56:46.014Z,69633.30
2018-03-26T10:59:14.397Z,69671.56
2018-03-26T11:01:42.718Z,69664.52
2018-03-26T11:04:11.067Z,69629.27
2018-03-26T11:06:39.387Z,69629.08
2018-03-26T11:09:07.730Z,69642.42
2018-03-26T11:11:36.054Z,69656.30
2018-03-26T11:14:04.403Z,69643.34
2018-03-26T11:16:32.732Z,69624.58
2018-03-26T11:19:01.268Z,69620.77
2018-03-26T11:21:29.598Z,69621.94
2018-03-26T11:23:57.951Z,69657.39
2018-03-26T11:26:26.275Z,69658.60
2018-03-26T11:28:54.623Z,69651.55
2018-03-26T11:31:23.019Z,69657.17
2018-03-26T11:33:51.545Z,69662.40
2018-03-26T11:36:19.904Z,69669.75
2018-03-26T11:38:48.219Z,69668.45
2018-03-26T11:41:16.549Z,69652.98
2018-03-26T11:43:44.898Z,69656.30
2018-03-26T11:46:14.235Z,69626.96
2018-03-26T11:48:42.719Z,69611.60
2018-03-26T11:51:11.150Z,69607.13
2018-03-26T11:53:39.672Z,69616.94
2018-03-26T11:56:08.118Z,69639.00
2018-03-26T11:58:37.601Z,69621.05
2018-03-26T12:01:05.950Z,69600.89
2018-03-26T12:03:34.302Z,69599.66
2018-03-26T12:06:02.690Z,69588.52
2018-03-26T12:08:31.031Z,69602.38
2018-03-26T12:10:59.358Z,69612.61
2018-03-26T12:13:27.726Z,69613.32
2018-03-26T12:15:56.071Z,69606.38
2018-03-26T12:18:24.886Z,69625.06
2018-03-26T12:21:02.669Z,69643.64
2018-03-26T12:23:42.851Z,69664.62
2018-03-26T12:26:12.174Z,69651.47
2018-03-26T12:28:52.205Z,69630.20
2018-03-26T12:31:20.554Z,69604.68
2018-03-26T12:34:00.706Z,69616.20
2018-03-26T12:36:30.152Z,69614.20
2018-03-26T12:38:58.642Z,69633.10
2018-03-26T12:41:27.007Z,69634.11
2018-03-26T12:43:55.367Z,69627.67
2018-03-26T12:46:36.550Z,69619.44
2018-03-26T12:49:04.910Z,69587.13
2018-03-26T12:51:45.213Z,69579.09
2018-03-26T12:54:13.566Z,69572.88
2018-03-26T12:56:41.893Z,69592.94
2018-03-26T12:59:10.236Z,69597.88
2018-03-26T13:01:50.278Z,69592.25
2018-03-26T13:04:18.622Z,69567.55
2018-03-26T13:06:47.036Z,69591.36
2018-03-26T13:09:15.403Z,69618.45
2018-03-26T13:11:43.722Z,69622.16
2018-03-26T13:14:12.070Z,69616.13
2018-03-26T13:16:40.398Z,69622.16
2018-03-26T13:19:08.750Z,69591.84
2018-03-26T13:21:37.079Z,69597.36
2018-03-26T13:24:05.426Z,69615.52
2018-03-26T13:26:34.769Z,69634.21
2018-03-26T13:29:03.215Z,69635.41
2018-03-26T13:31:31.592Z,69633.41
2018-03-26T13:34:00.271Z,69623.03
2018-03-26T13:36:28.587Z,69637.12
2018-03-26T13:38:56.955Z,69618.02
2018-03-26T13:41:25.278Z,69600.77
2018-03-26T13:43:53.638Z,69588.73
2018-03-26T13:46:21.961Z,69592.63
2018-03-26T13:48:50.382Z,69615.52
2018-03-26T13:51:18.733Z,69620.93
2018-03-26T13:53:48.087Z,69638.52
2018-03-26T13:56:16.432Z,69649.86
2018-03-26T13:58:44.761Z,69655.30
2018-03-26T14:01:13.103Z,69646.02
2018-03-26T14:03:41.426Z,69650.16
2018-03-26T14:06:10.011Z,69649.35
2018-03-26T14:08:50.114Z,69643.23
2018-03-26T14:11:30.106Z,69640.63
2018-03-26T14:14:10.095Z,69624.23
2018-03-26T14:16:51.325Z,69626.66
2018-03-26T14:19:20.942Z,69633.10
2018-03-26T14:21:49.320Z,69603.80
2018-03-26T14:24:18.109Z,69563.53
2018-03-26T14:26:47.830Z,69559.42
2018-03-26T14:29:16.334Z,69538.64
2018-03-26T14:31:44.745Z,69535.94
2018-03-26T14:34:13.779Z,69551.77
2018-03-26T14:36:42.104Z,69614.33
2018-03-26T14:39:10.497Z,69710.53
2018-03-26T14:41:39.085Z,69655.88
2018-03-26T14:44:07.552Z,69630.27
2018-03-26T14:46:36.770Z,69585.61
2018-03-26T14:49:05.160Z,69575.50
2018-03-26T14:51:33.662Z,69559.12
2018-03-26T14:54:02.180Z,69586.02
2018-03-26T14:56:31.499Z,69580.09
2018-03-26T14:58:59.854Z,69568.94
2018-03-26T15:01:28.268Z,69559.11
2018-03-26T15:04:01.004Z,69539.04
2018-03-26T15:06:30.302Z,69529.62
2018-03-26T15:08:58.736Z,69516.45
2018-03-26T15:11:27.662Z,69510.36
2018-03-26T15:13:56.006Z,69509.75
2018-03-26T15:16:24.409Z,69523.30
2018-03-26T15:18:52.878Z,69541.46
2018-03-26T15:21:21.279Z,69547.07
2018-03-26T15:23:49.798Z,69517.05
2018-03-26T15:26:19.258Z,69520.38
2018-03-26T15:28:47.705Z,69513.97
2018-03-26T15:31:16.096Z,69515.78
2018-03-26T15:33:44.519Z,69506.25
2018-03-26T15:36:12.875Z,69498.63
2018-03-26T15:41:21.863Z,69494.61
2018-03-26T15:43:50.187Z,69485.70
2018-03-26T15:46:18.542Z,69477.07
2018-03-26T15:48:46.890Z,69476.69
2018-03-26T15:51:15.278Z,69488.59
2018-03-26T15:53:43.590Z,69480.27
2018-03-26T15:56:12.980Z,69490.73
2018-03-26T15:58:46.174Z,69490.42
2018-03-26T16:01:19.670Z,69491.41
2018-03-26T16:03:48.062Z,69488.80
2018-03-26T16:06:16.690Z,69500.92
2018-03-26T16:08:45.039Z,69500.66
2018-03-26T16:11:13.485Z,69501.34
2018-03-26T16:13:42.081Z,69498.02
2018-03-26T16:16:11.166Z,69504.65
2018-03-26T16:18:39.499Z,69509.55
2018-03-26T16:21:07.838Z,69519.39
2018-03-26T16:23:36.158Z,69507.86
2018-03-26T16:26:04.503Z,69512.78
2018-03-26T16:28:32.854Z,69505.23
2018-03-26T16:31:01.194Z,69494.20
2018-03-26T16:33:29.613Z,69496.83
2018-03-26T16:35:57.971Z,69499.85
2018-03-26T16:38:26.304Z,69481.77
2018-03-26T16:40:54.684Z,69628.58
2018-03-26T16:43:23.042Z,69539.55
2018-03-26T16:45:51.394Z,69522.38
2018-03-26T16:48:19.798Z,69518.77
2018-03-26T16:50:48.153Z,69521.39
2018-03-26T16:53:16.952Z,69525.79
2018-03-26T16:55:45.286Z,69534.03
2018-03-26T16:58:13.626Z,69540.17
2018-03-26T17:00:41.976Z,69537.55
2018-03-26T17:03:10.970Z,69536.94
2018-03-26T17:05:39.316Z,69533.81
2018-03-26T17:08:07.678Z,69542.55
2018-03-26T17:10:36.010Z,69536.55
2018-03-26T17:13:04.379Z,69537.25
2018-03-26T17:15:32.874Z,69546.56
2018-03-26T17:18:01.246Z,69555.80
2018-03-26T17:20:29.618Z,69556.48
2018-03-26T17:22:57.970Z,69555.60
2018-03-26T17:25:27.217Z,69549.88
2018-03-26T17:27:55.621Z,69696.06
2018-03-26T17:30:23.978Z,69800.48
2018-03-26T17:32:52.410Z,69725.80
2018-03-26T17:35:21.646Z,69662.09
2018-03-26T17:37:50.105Z,69638.11
2018-03-26T17:40:18.461Z,69618.33
2018-03-26T17:42:46.903Z,69608.80
2018-03-26T17:45:15.362Z,69593.14
2018-03-26T17:47:43.761Z,69588.61
2018-03-26T17:50:12.166Z,69585.00
2018-03-26T17:52:40.502Z,69577.38
2018-03-26T17:55:08.826Z,69572.77
2018-03-26T17:57:37.490Z,69573.38
2018-03-26T18:00:05.996Z,69570.50
2018-03-26T18:02:34.423Z,69559.31
2018-03-26T18:05:02.774Z,69540.25
2018-03-26T18:07:32.125Z,69532.44
2018-03-26T18:10:00.623Z,69511.88
2018-03-26T18:12:28.949Z,69506.85
2018-03-26T18:14:57.309Z,69511.06
2018-03-26T18:17:25.672Z,69516.16
2018-03-26T18:19:54.110Z,69516.29
2018-03-26T18:22:22.496Z,69512.76
2018-03-26T18:24:50.851Z,69508.64
2018-03-26T18:27:20.186Z,69496.70
2018-03-26T18:29:48.541Z,69498.42
2018-03-26T18:32:17.039Z,69474.37
2018-03-26T18:34:45.517Z,69463.02
2018-03-26T18:37:14.819Z,69469.55
2018-03-26T18:39:43.141Z,69466.55
2018-03-26T18:42:11.596Z,69457.81
2018-03-26T18:44:39.919Z,69455.73
2018-03-26T18:47:08.343Z,69434.86
2018-03-26T18:49:36.711Z,69435.08
2018-03-26T18:52:05.054Z,69422.45
2018-03-26T18:54:33.451Z,69403.30
2018-03-26T18:57:01.898Z,69390.80
2018-03-26T18:59:30.272Z,69387.38
2018-03-26T19:01:58.667Z,69391.50
2018-03-26T19:04:27.019Z,69394.40
2018-03-26T19:06:56.460Z,69400.32
2018-03-26T19:09:24.819Z,69398.39
2018-03-26T19:11:53.176Z,69385.58
2018-03-26T19:14:21.541Z,69360.73
2018-03-26T19:16:49.895Z,69363.73
2018-03-26T19:19:18.260Z,69374.86
2018-03-26T19:21:46.574Z,69374.66
2018-03-26T19:24:15.188Z,69374.45
2018-03-26T19:26:43.683Z,69373.85
2018-03-26T19:29:12.208Z,69375.46
2018-03-26T19:31:45.582Z,69379.30
2018-03-26T19:34:14.074Z,69365.83
2018-03-26T19:36:43.394Z,69365.66
2018-03-26T19:39:11.789Z,69357.22
2018-03-26T19:41:40.215Z,69364.44
2018-03-26T19:44:09.133Z,69360.44
2018-03-26T19:46:38.598Z,69356.01
2018-03-26T19:49:07.064Z,69356.02
2018-03-26T19:51:36.290Z,69355.61
2018-03-26T19:54:04.877Z,69364.34
2018-03-26T19:56:33.210Z,69383.88
2018-03-26T19:59:01.557Z,69368.86
2018-03-26T20:01:30.014Z,69344.01
2018-03-26T20:03:58.409Z,69340.30
2018-03-26T20:06:26.826Z,69333.59
2018-03-26T20:08:55.226Z,69332.78
2018-03-26T20:11:23.650Z,69312.26
2018-03-26T20:13:52.029Z,69299.16
2018-03-26T20:16:20.561Z,69294.56
2018-03-26T20:18:49.008Z,69313.98
2018-03-26T20:21:17.551Z,69310.46
2018-03-26T20:23:45.910Z,69309.98
2018-03-26T20:26:14.261Z,69297.45
2018-03-26T20:28:42.599Z,69286.84
2018-03-26T20:31:10.922Z,69265.69
2018-03-26T20:33:39.291Z,69259.47
2018-03-26T20:36:07.628Z,69270.13
2018-03-26T20:38:36.106Z,69286.34
2018-03-26T20:41:04.425Z,69288.23
2018-03-26T20:43:32.829Z,69287.36
2018-03-26T20:46:01.158Z,69287.55
2018-03-26T20:48:29.510Z,69292.97
2018-03-26T20:50:57.838Z,69297.35
2018-03-26T20:53:26.182Z,69308.55
2018-03-26T20:55:54.523Z,69320.17
2018-03-26T20:58:22.865Z,69326.69
2018-03-26T21:00:51.190Z,69330.70
2018-03-26T21:03:19.550Z,69326.48
2018-03-26T21:05:47.869Z,69328.49
2018-03-26T21:08:16.222Z,69321.38
2018-03-26T21:10:44.549Z,69328.91
2018-03-26T21:13:12.905Z,69310.28
2018-03-26T21:15:41.234Z,69297.35
2018-03-26T21:18:09.576Z,69302.47
2018-03-26T21:20:37.909Z,69303.39
2018-03-26T21:23:06.270Z,69298.04
2018-03-26T21:25:34.595Z,69323.28
2018-03-26T21:28:02.929Z,69326.48
2018-03-26T21:30:31.270Z,69327.50
2018-03-26T21:32:59.590Z,69317.97
2018-03-26T21:35:28.331Z,69319.98
2018-03-26T21:37:56.969Z,69327.19
2018-03-26T21:40:25.317Z,69327.61
2018-03-26T21:42:53.649Z,69330.20
2018-03-26T21:45:22.008Z,69329.00
2018-03-26T21:47:50.336Z,69328.02
2018-03-26T21:50:18.684Z,69435.69
2018-03-26T21:52:47.016Z,69371.86
2018-03-26T21:55:15.365Z,69342.50
2018-03-26T21:57:43.699Z,69331.91
2018-03-26T22:00:18.002Z,69317.48
2018-03-26T22:02:46.337Z,69296.05
2018-03-26T22:05:14.717Z,69294.97
2018-03-26T22:07:43.047Z,69302.97
2018-03-26T22:10:11.404Z,69305.97
2018-03-26T22:12:39.727Z,69288.84
2018-03-26T22:15:08.092Z,69269.02
2018-03-26T22:17:37.464Z,69260.09
2018-03-26T22:20:05.872Z,69266.59
2018-03-26T22:22:34.156Z,69261.79
2018-03-26T22:25:02.518Z,69258.30
2018-03-26T22:27:30.929Z,69246.59
2018-03-26T22:29:59.275Z,69238.30
2018-03-26T22:32:27.598Z,69253.89
2018-03-26T22:34:55.987Z,69274.03
2018-03-26T22:37:28.053Z,69280.33
2018-03-26T22:39:57.075Z,69259.11
2018-03-26T22:42:25.406Z,69229.98
2018-03-26T22:44:53.838Z,69217.80
2018-03-26T22:47:22.235Z,69208.39
2018-03-26T22:49:50.591Z,69195.99
2018-03-26T22:52:18.910Z,69175.07
2018-03-26T22:54:47.259Z,69187.88
2018-03-26T22:57:15.586Z,69189.08
2018-03-26T22:59:43.936Z,69170.08
2018-03-26T23:02:12.266Z,69166.88
2018-03-26T23:04:40.616Z,69195.98
2018-03-26T23:07:08.945Z,69209.67
2018-03-26T23:09:37.291Z,69224.08
2018-03-26T23:12:05.627Z,69234.28
2018-03-26T23:14:33.977Z,69317.97
2018-03-26T23:17:02.318Z,69299.95
2018-03-26T23:19:31.354Z,69289.24
2018-03-26T23:21:59.679Z,69283.64
2018-03-26T23:24:28.031Z,69277.44
2018-03-26T23:26:56.358Z,69265.13
2018-03-26T23:29:24.711Z,69251.50
2018-03-26T23:31:53.038Z,69239.88
2018-03-26T23:34:21.385Z,69244.78
2018-03-26T23:36:49.718Z,69242.70
2018-03-26T23:39:18.046Z,69240.09
2018-03-26T23:41:46.391Z,69248.59
2018-03-26T23:44:14.714Z,69252.19
2018-03-26T23:46:43.054Z,69245.58
2018-03-26T23:49:11.365Z,69246.39
2018-03-26T23:51:39.705Z,69240.08
2018-03-26T23:54:08.030Z,69245.81
2018-03-26T23:56:36.370Z,69241.39
2018-03-26T23:59:04.700Z,69242.91
